Terminal Aerodrome Forecast
Issued by NWS

Home | Current Version | Previous Version | Text Only | Print | Product List | Glossary On
Versions: 1 2 3 4 5 6 7 8 9 10 11 12 13 14 15 16 17 18 19 20 21 22 23 24
000
FTUS44 KOUN 231730
TAFCSM
TAF
KCSM 231730Z 2318/2418 03022G28KT P6SM SCT040 SCT100
     FM240200 03008KT P6SM BKN100 PROB30 2407/2413 5SM TSRA
      BKN030CB=

USA.gov is the U.S. government's official web portal to all federal, state and local government web resources and services.